Wichita Falls, Texas
Current Conditions -  °F | °C
As of 12:55 AM on Sunday 26 Oct 2014 (Local Time) from KCWC Reporting Station
Clear Clear  
Wind Chill: 64°   Ceiling: Unl
Heat Index: 64°   Visibility: 10mi
Dew Point: 55°   Wind: 8mph
Humidity: 73%   Direction: 170°S
Pressure: 30.01"   Gusts: NA
Location:  33.91°N, 98.5°W
Report Text: KCWC 260555Z AUTO 17007KT 10SM CLR 18/13 A3001 RMK AO2 T01790129 10266 20176 403290152
Loading
Personal Weather Stations






























Interactive Weather Map
Tropical Storm Tracking
New forecast layout! Learn more

10-Day Weather Forecast

Advertisements
Track Severe Weather on mobile